createdAt,value
2023-05-16T05:31:45.120Z,59.72
2023-05-16T05:34:12.608Z,73.32
2023-05-16T05:36:40.104Z,74.60
2023-05-16T05:39:07.436Z,63.65
2023-05-16T05:41:35.391Z,52.28
2023-05-16T05:44:03.989Z,59.28
2023-05-16T05:46:33.820Z,60.92
2023-05-16T05:49:02.240Z,56.67
2023-05-16T05:51:29.555Z,60.13
2023-05-16T05:54:02.586Z,59.17
2023-05-16T05:56:32.654Z,58.58
2023-05-16T05:59:00.309Z,60.88
2023-05-16T06:01:27.795Z,59.17
2023-05-16T06:03:55.157Z,67.30
2023-05-16T06:06:24.092Z,60.08
2023-05-16T06:08:52.366Z,72.22
2023-05-16T06:11:21.599Z,79.35
2023-05-16T06:13:49.328Z,67.60
2023-05-16T06:16:17.660Z,64.95
2023-05-16T06:18:45.396Z,71.45
2023-05-16T06:21:13.256Z,72.35
2023-05-16T06:23:40.447Z,61.88
2023-05-16T06:26:08.910Z,67.85
2023-05-16T06:28:37.369Z,67.05
2023-05-16T06:31:07.973Z,68.05
2023-05-16T06:33:37.902Z,72.43
2023-05-16T06:36:06.234Z,67.07
2023-05-16T06:38:37.666Z,77.07
2023-05-16T06:41:06.577Z,70.25
2023-05-16T06:43:34.939Z,73.38
2023-05-16T06:46:03.803Z,68.22
2023-05-16T06:48:31.844Z,77.43
2023-05-16T06:50:59.926Z,65.90
2023-05-16T06:53:29.050Z,75.85
2023-05-16T06:55:56.731Z,77.70
2023-05-16T06:58:24.004Z,74.32
2023-05-16T07:00:55.863Z,70.20
2023-05-16T07:03:23.563Z,68.40
2023-05-16T07:05:53.006Z,64.45
2023-05-16T07:08:21.062Z,76.82
2023-05-16T07:10:48.670Z,68.30
2023-05-16T07:13:16.326Z,65.75
2023-05-16T07:15:44.054Z,66.22
2023-05-16T07:18:12.425Z,74.35
2023-05-16T07:20:40.345Z,63.63
2023-05-16T07:23:08.201Z,72.53
2023-05-16T07:25:37.061Z,67.90
2023-05-16T07:28:04.981Z,69.93
2023-05-16T07:30:33.382Z,63.33
2023-05-16T07:33:01.193Z,63.22
2023-05-16T07:35:29.039Z,67.38
2023-05-16T07:37:57.926Z,83.53
2023-05-16T07:40:28.395Z,63.38
2023-05-16T07:42:56.052Z,55.83
2023-05-16T07:45:26.433Z,63.83
2023-05-16T07:48:00.829Z,63.72
2023-05-16T07:50:29.182Z,48.75
2023-05-16T07:52:56.692Z,63.00
2023-05-16T07:55:27.323Z,55.00
2023-05-16T07:57:55.213Z,55.20
2023-05-16T08:00:22.921Z,51.78
2023-05-16T08:02:51.017Z,60.72
2023-05-16T08:05:18.857Z,57.10
2023-05-16T08:07:46.696Z,60.15
2023-05-16T08:10:14.562Z,50.88
2023-05-16T08:12:42.922Z,56.10
2023-05-16T08:15:12.590Z,49.65
2023-05-16T08:17:40.223Z,40.95
2023-05-16T08:20:11.876Z,44.17
2023-05-16T08:22:39.941Z,41.15
2023-05-16T08:25:09.212Z,47.00
2023-05-16T08:27:40.197Z,33.53
2023-05-16T08:30:10.322Z,37.95
2023-05-16T08:32:38.073Z,39.58
2023-05-16T08:35:07.518Z,31.55
2023-05-16T08:37:35.682Z,35.88
2023-05-16T08:40:06.027Z,29.73
2023-05-16T08:42:34.799Z,25.42
2023-05-16T08:45:02.757Z,23.23
2023-05-16T08:47:43.201Z,26.20
2023-05-16T08:50:12.082Z,24.52
2023-05-16T08:52:41.069Z,19.33
2023-05-16T08:55:11.681Z,30.10
2023-05-16T08:57:57.034Z,22.80
2023-05-16T09:00:25.226Z,18.33
2023-05-16T09:02:53.396Z,16.83
2023-05-16T09:05:26.846Z,18.38
2023-05-16T09:07:55.572Z,23.80
2023-05-16T09:10:24.001Z,22.73
2023-05-16T09:12:54.417Z,16.05
2023-05-16T09:15:22.474Z,14.32
2023-05-16T09:17:50.536Z,16.88
2023-05-16T09:20:19.808Z,13.77
2023-05-16T09:22:58.666Z,11.18
2023-05-16T09:25:32.030Z,12.45
2023-05-16T09:28:02.730Z,10.68
2023-05-16T09:30:33.758Z,16.65
2023-05-16T09:33:02.028Z,8.70
2023-05-16T09:38:00.405Z,10.23
2023-05-16T09:40:28.012Z,11.40
2023-05-16T09:43:06.232Z,7.97
2023-05-16T09:45:37.057Z,7.82
2023-05-16T09:48:10.279Z,10.57
2023-05-16T09:50:43.640Z,5.53
2023-05-16T09:53:14.551Z,5.10
2023-05-16T09:55:45.302Z,7.20
2023-05-16T09:58:19.121Z,6.97
2023-05-16T10:00:48.306Z,6.20
2023-05-16T10:03:17.189Z,8.77
2023-05-16T10:05:44.963Z,5.28
2023-05-16T10:08:14.425Z,5.38
2023-05-16T10:10:42.799Z,6.45
2023-05-16T10:13:11.865Z,7.75
2023-05-16T10:15:39.821Z,5.45
2023-05-16T10:18:13.149Z,7.35
2023-05-16T10:20:43.597Z,6.72
2023-05-16T10:23:17.313Z,4.43
2023-05-16T10:25:46.045Z,3.42
2023-05-16T10:28:15.184Z,4.15
2023-05-16T10:30:45.560Z,3.65
2023-05-16T10:33:17.886Z,4.38
2023-05-16T10:35:46.664Z,3.15
2023-05-16T10:38:18.736Z,4.25
2023-05-16T10:40:48.911Z,5.03
2023-05-16T10:43:27.469Z,4.50
2023-05-16T10:46:12.372Z,3.95
2023-05-16T10:48:41.446Z,3.30
2023-05-16T10:51:23.887Z,5.47
2023-05-16T10:53:55.412Z,3.25
2023-05-16T10:56:24.588Z,4.50
2023-05-16T10:58:55.690Z,6.75
2023-05-16T11:01:31.677Z,4.55
2023-05-16T11:03:59.500Z,5.68
2023-05-16T11:06:43.480Z,7.38
2023-05-16T11:09:11.326Z,6.35
2023-05-16T11:11:57.664Z,7.97
2023-05-16T11:14:38.988Z,5.00
2023-05-16T11:17:13.527Z,5.82
2023-05-16T11:20:04.004Z,6.32
2023-05-16T11:22:33.630Z,12.25
2023-05-16T11:25:09.323Z,7.13
2023-05-16T11:27:45.785Z,6.10
2023-05-16T11:30:21.767Z,4.20
2023-05-16T11:32:50.643Z,3.58
2023-05-16T11:35:18.633Z,2.28
2023-05-16T11:37:47.075Z,1.77
2023-05-16T11:40:15.718Z,2.90
2023-05-16T11:42:49.212Z,3.50
2023-05-16T11:45:18.458Z,3.17
2023-05-16T11:47:48.078Z,3.25
2023-05-16T11:50:20.798Z,3.42
2023-05-16T11:52:53.749Z,1.80
2023-05-16T11:55:41.036Z,1.77
2023-05-16T11:58:10.258Z,4.97
2023-05-16T12:00:38.180Z,4.20
2023-05-16T12:03:06.159Z,3.00
2023-05-16T12:05:35.408Z,1.33
2023-05-16T12:08:05.726Z,2.83
2023-05-16T12:10:39.293Z,2.00
2023-05-16T12:13:07.351Z,2.13
2023-05-16T12:15:34.894Z,3.97
2023-05-16T12:18:02.614Z,4.63
2023-05-16T12:20:31.232Z,2.22
2023-05-16T12:22:58.870Z,3.00
2023-05-16T12:25:36.044Z,4.13
2023-05-16T12:28:05.069Z,3.63
2023-05-16T12:30:33.192Z,2.80
2023-05-16T12:33:08.510Z,3.15
2023-05-16T12:35:39.021Z,4.72
2023-05-16T12:38:10.969Z,3.40
2023-05-16T12:40:41.983Z,2.03
2023-05-16T12:43:24.415Z,6.35
2023-05-16T12:45:57.380Z,2.17
2023-05-16T12:50:57.556Z,2.80
2023-05-16T12:53:25.454Z,4.70
2023-05-16T12:55:52.960Z,5.10
2023-05-16T12:58:20.216Z,5.18
2023-05-16T13:00:48.613Z,2.05
2023-05-16T13:03:16.244Z,3.28
2023-05-16T13:05:44.734Z,3.05
2023-05-16T13:08:12.307Z,3.60
2023-05-16T13:10:40.594Z,3.65
2023-05-16T13:13:07.762Z,2.47
2023-05-16T13:15:35.523Z,2.58
2023-05-16T13:18:05.720Z,9.88
2023-05-16T13:20:33.222Z,3.47
2023-05-16T13:23:00.974Z,6.22
2023-05-16T13:25:28.596Z,5.32
2023-05-16T13:27:56.222Z,2.90
2023-05-16T13:30:24.687Z,3.28
2023-05-16T13:32:52.489Z,5.95
2023-05-16T13:35:20.034Z,2.25
2023-05-16T13:37:47.497Z,5.40
2023-05-16T13:40:15.002Z,3.92
2023-05-16T13:42:42.741Z,5.15
2023-05-16T13:45:09.976Z,4.60
2023-05-16T13:47:37.846Z,2.60
2023-05-16T13:50:09.212Z,1.80
2023-05-16T13:52:38.222Z,5.75
2023-05-16T13:55:06.736Z,4.38
2023-05-16T13:57:34.194Z,2.25
2023-05-16T14:02:32.000Z,2.78
2023-05-16T14:04:59.163Z,2.47
2023-05-16T14:07:26.364Z,3.70
2023-05-16T14:09:53.633Z,2.67
2023-05-16T14:12:21.413Z,4.97
2023-05-16T14:14:48.984Z,6.30
2023-05-16T14:17:16.516Z,2.58
2023-05-16T14:19:44.187Z,10.88
2023-05-16T14:22:11.506Z,3.80
2023-05-16T14:24:38.836Z,4.22
2023-05-16T14:27:05.967Z,4.35
2023-05-16T14:29:33.144Z,5.07
2023-05-16T14:32:00.320Z,3.38
2023-05-16T14:34:28.315Z,4.07
2023-05-16T14:36:56.278Z,6.95
2023-05-16T14:39:23.616Z,8.50
2023-05-16T14:41:51.008Z,4.78
2023-05-16T14:44:20.281Z,7.60
2023-05-16T14:46:47.698Z,4.47
2023-05-16T14:49:14.967Z,8.20
2023-05-16T14:51:44.997Z,4.43
2023-05-16T14:54:12.051Z,6.15
2023-05-16T14:56:39.618Z,4.10
2023-05-16T14:59:07.078Z,6.97
2023-05-16T15:01:34.230Z,4.80
2023-05-16T15:04:01.565Z,6.03
2023-05-16T15:06:28.970Z,6.38
2023-05-16T15:08:56.442Z,6.95
2023-05-16T15:11:23.742Z,9.10
2023-05-16T15:13:51.013Z,6.95
2023-05-16T15:16:18.297Z,3.38
2023-05-16T15:18:45.933Z,5.47
2023-05-16T15:21:13.585Z,6.68
2023-05-16T15:23:41.559Z,8.70
2023-05-16T15:26:08.981Z,9.02
2023-05-16T15:28:36.333Z,3.83
2023-05-16T15:31:07.164Z,11.63
2023-05-16T15:33:34.773Z,4.90
2023-05-16T15:36:02.462Z,5.93
2023-05-16T15:38:29.584Z,8.57
2023-05-16T15:41:14.148Z,4.80
2023-05-16T15:43:44.533Z,12.43
2023-05-16T15:46:11.991Z,6.90
2023-05-16T15:48:42.809Z,6.25
2023-05-16T15:51:10.644Z,7.50
2023-05-16T15:53:37.795Z,6.03
2023-05-16T15:56:06.084Z,10.18
2023-05-16T15:58:33.210Z,5.68
